x

East Scotia Slope (44137) Wave Buoy

1:00am - Tue 21st Oct 2014 All times are EDT. -4 hours from GMT.

  • Sig Wave height 8.9ft
  • Peak Period 8s
  • Wind
    18mph, 22mph gusts
  • Sea Temp 68°f
  • Air Temp 60°f
  • Sea Pressure 1019mb
  • East Scotia Slope
  • East Scotia Slope

More Historic Weather Station data

Upgrade to MSW Pro to gain access to the past 30 days of data for over 8000 Wavebouys and Weather Stations around the globe.

Join Pro

Comparision Forecast

View Surf forecast
   
Tue 10/21 1:00am 9ft 8s 18 22 mph 1019mb 68f 60f
12:00am 9ft 8s 20 25 mph 1018.7mb 68f 60f
Mon 10/20 11:00pm 8ft 9s 18 22 mph 1018.2mb 67f 59f
10:00pm 8.5ft 8s 18 25 mph 1018mb 68f 59f
9:00pm 9ft 8s 20 25 mph 1017.5mb 69f 59f
8:00pm 9.5ft 8s 20 27 mph 1016.9mb 69f 59f
7:00pm 11ft 8s 18 25 mph 1016.4mb 69f 58f
6:00pm 10ft 8s 22 29 mph 1016.4mb 69f 57f
5:00pm 11.5ft 9s 25 29 mph 1015.5mb 69f 57f
4:00pm 12ft 9s 25 31 mph 1015mb 69f 57f
3:00pm  -   -  25
mph
1014.5mb - 57f
2:00pm 14ft 9s 22 34 mph 1014.1mb 69f 56f
1:00pm 13.5ft 9s 25 34 mph 1013.9mb 69f 55f
12:00pm 15ft 10s 27 36 mph 1013.7mb 69f 55f
11:00am 14ft 9s 27 34 mph 1013.7mb 69f 54f
10:00am 15ft 10s 27 36 mph 1012.9mb 69f 55f
9:00am 13ft 9s 29 36 mph 1011.8mb 69f 55f
8:00am 15ft 11s 34 43 mph 1010.7mb 69f 55f
7:00am 15.5ft 8s 34 45 mph 1008.8mb 69f 56f
6:00am 13ft 8s 36 45 mph 1007.2mb 69f 57f
5:00am 12.5ft 10s 36 45 mph 1005.6mb 69f 57f
4:00am 10.5ft 10s 34 43 mph 1003.8mb 69f 59f
3:00am 9.5ft 10s 31 38 mph 1002.4mb 69f 60f
2:00am 9ft 10s 27 34 mph 1001.5mb 69f 62f
1:00am 9ft 9s 18 22 mph 1001.1mb 69f 60f
Sun 10/19 10:00pm 7ft 11s 29 36 mph 997.6mb 69f 62f
9:00pm 7.5ft 11s 22 29 mph 996.8mb 69f 67f
8:00pm 7.5ft 12s 18 20 mph 999.1mb 69f 66f
7:00pm 8ft 11s 9 11 mph 1000.7mb 69f 66f
6:00pm 7.5ft 12s 20 22 mph 1002.6mb 69f 66f
5:00pm 8ft 12s 9 13 mph 1003.5mb 70f 68f
4:00pm 9ft 12s 4 7 mph 1004.7mb 70f 69f
3:00pm 8ft 12s 7 9 mph 1005.2mb 70f 70f
2:00pm 8ft 12s 7 9 mph 1005.6mb 70f 70f
1:00pm 8ft 12s 9 13 mph 1006.7mb 70f 69f
12:00pm 10ft 14s 11 13 mph 1006.6mb 69f 70f
11:00am 10ft 13s 13 18 mph 1007.1mb 69f 69f
10:00am 10.5ft 13s 16 18 mph 1007mb 69f 69f
9:00am 11ft 14s 18 20 mph 1006.4mb 69f 70f
8:00am 13ft 14s 11 20 mph 1006.2mb 70f 69f
7:00am 13ft 12s 16 20 mph 1005.2mb 70f 70f
6:00am 14.5ft 13s 13 18 mph 1005.1mb 70f 70f
5:00am 13ft 15s 16 18 mph 1005mb 70f 69f
4:00am 15ft 14s 18 22 mph 1004.5mb 70f 69f
3:00am 17.5ft 15s 16 20 mph 1004.1mb 70f 69f
2:00am 17.5ft 15s 9 13 mph 1003.7mb 70f 67f
1:00am 17ft 16s 11 16 mph 1003mb 70f 66f
12:00am 15.5ft 17s 16 20 mph 1002.4mb 70f 66f
Sat 10/18 11:00pm 14ft 17s 18 25 mph 1001.3mb 70f 65f
10:00pm 12ft 18s 22 29 mph 1000.5mb 69f 65f
9:00pm 12ft 17s 25 31 mph 999.6mb 69f 65f
8:00pm 12ft 15s 9 13 mph 999mb 69f 69f
7:00pm 11.5ft 15s 7 11 mph 999.1mb 70f 69f
6:00pm 12.5ft 16s 4 9 mph 999.5mb 70f 70f
5:00pm 11.5ft 16s 2 4 mph 1000.1mb 70f 70f
4:00pm 12ft 15s 7 9 mph 1001.4mb 70f 71f
3:00pm 12.5ft 15s 11 16 mph 1002.5mb 70f 71f
2:00pm 12ft 15s 13 16 mph 1003.4mb 69f 71f
1:00pm 11ft 9s 11 13 mph 1004.3mb 69f 71f
12:00pm 11ft 10s 9 11 mph 1005.2mb 69f 71f
11:00am 10.5ft 10s 7 9 mph 1006.2mb 69f 71f
10:00am 10ft 10s 16 22 mph 1006.9mb 69f 71f
9:00am 11ft 10s 16 18 mph 1007.2mb 69f 72f
8:00am 9.5ft 12s 18 22 mph 1007.8mb 69f 71f
7:00am 10ft 10s 18 22 mph 1007.7mb 69f 72f
6:00am 9.5ft 10s 11 13 mph 1008.1mb 69f 64f
5:00am 9ft 10s 11 16 mph 1008.6mb 69f 64f
4:00am 9.5ft 10s 9 16 mph 1009.4mb 69f 64f
3:00am 10ft 11s 4 9 mph 1009.6mb 69f 64f
2:00am 10ft 10s 4 9 mph 1010.3mb 69f 64f
1:00am 10ft 10s  -  2 mph 1010.7mb 69f 64f
12:00am 10ft 10s 4 7 mph 1010.9mb 69f 64f
Fri 10/17 11:00pm 11ft 10s 4 9 mph 1011.6mb 69f 64f
10:00pm 12ft 11s 2 4 mph 1011.4mb 69f 66f
9:00pm 11.5ft 11s 9 13 mph 1012mb 69f 66f
8:00pm 12.5ft 10s 4 7 mph 1011.8mb 69f 68f
7:00pm 14ft 10s 4 9 mph 1011.9mb 69f 67f
6:00pm 13ft 11s 20 25 mph 1011.4mb 69f 66f
5:00pm 12.5ft 10s 29 36 mph 1009.9mb 70f 73f
4:00pm 12ft 10s 31 36 mph 1009.9mb 70f 73f
3:00pm 12ft 8s 31 38 mph 1010.3mb 71f 73f
2:00pm 11.5ft 8s 29 36 mph 1010.2mb 71f 73f
1:00pm 11ft 8s 29 36 mph 1011.1mb 71f 73f
12:00pm 10ft 7s 27 34 mph 1012.5mb 71f 73f
11:00am 8.5ft 7s 27 31 mph 1013.8mb 71f 73f
10:00am 7ft 7s 27 31 mph 1014.4mb 71f 73f
9:00am 6ft 6s 25 31 mph 1014.8mb 71f 72f
8:00am 5.5ft 6s 25 29 mph 1015.1mb 71f 72f
7:00am 5ft 6s 22 27 mph 1015.2mb 71f 72f